Terminal Aerodrome Forecast
Issued by NWS

Home | Current Version | Previous Version | Text Only | Print | Product List | Glossary On
Versions: 1 2 3 4 5 6 7 8 9 10 11 12 13 14 15 16 17 18 19 20 21 22 23 24 25
000
FTUS41 KRLX 130500
TAFCKB
TAF
KCKB 130537Z 1306/1406 00000KT P6SM BKN090
     FM131300 21006KT P6SM BKN130
     FM131500 23010KT P6SM BKN100
     FM131900 22012G20KT P6SM VCTS BKN040CB
     FM140000 21007KT 6SM TSRA BR BKN035CB
     FM140200 21006KT 6SM -SHRA BR VCTS BKN035CB
     FM140400 20005KT 5SM SHRA BR VCTS BKN035CB=

USA.gov is the U.S. government's official web portal to all federal, state and local government web resources and services.